Time;durP1;ratioP1;P1;durP2;ratioP2;P2;SDS_P1;SDS_P2;PMS_P1;PMS_P2;Temp;Humidity;BMP_temperature;BMP_pressure;BME280_temperature;BME280_humidity;BME280_pressure;Samples;Min_cycle;Max_cycle;Signal;HPM_P1;HPM_P2
2022/03/04 00:01:50;;;;;;;46.87;24.87;;;;;;;1.07;96.97;102541.66;5030192;28;20711;-73
2022/03/04 00:04:15;;;;;;;54.83;25.57;;;;;;;1.09;96.98;102538.50;5030369;28;20713;-72
2022/03/04 00:06:40;;;;;;;50.10;25.63;;;;;;;1.13;97.27;102535.47;5030281;28;20740;-73
2022/03/04 00:09:06;;;;;;;61.83;25.70;;;;;;;0.99;97.04;102527.50;5034348;28;20288;-73
2022/03/04 00:11:32;;;;;;;52.60;24.63;;;;;;;1.13;97.76;102542.16;5050044;28;20186;-72
2022/03/04 00:13:57;;;;;;;47.37;25.20;;;;;;;1.14;97.69;102538.91;5043428;28;20199;-72
2022/03/04 00:16:24;;;;;;;55.17;25.70;;;;;;;1.16;98.42;102540.78;5030241;28;20248;-73
2022/03/04 00:19:06;;;;;;;66.53;31.17;;;;;;;1.13;97.86;102535.47;5030080;28;20669;-72
2022/03/04 00:21:43;;;;;;;54.60;27.83;;;;;;;1.17;97.77;102537.50;5030110;28;20213;-72
2022/03/04 00:24:09;;;;;;;53.93;26.90;;;;;;;1.19;98.18;102545.22;5012344;28;20241;-71
2022/03/04 00:26:36;;;;;;;49.97;26.30;;;;;;;1.21;97.95;102544.59;5030118;28;20661;-72
2022/03/04 00:29:01;;;;;;;52.00;27.73;;;;;;;1.23;98.15;102543.06;5024003;28;20198;-73
2022/03/04 00:31:26;;;;;;;54.33;25.83;;;;;;;1.22;98.02;102536.25;5011977;28;20252;-71
2022/03/04 00:33:52;;;;;;;52.50;25.33;;;;;;;1.20;97.85;102541.94;5036950;28;20693;-74
2022/03/04 00:36:22;;;;;;;48.07;25.70;;;;;;;1.25;97.53;102544.09;5038412;28;20189;-73
2022/03/04 00:38:48;;;;;;;46.90;24.43;;;;;;;1.28;97.53;102543.47;5049446;28;20214;-72
2022/03/04 00:41:14;;;;;;;48.80;24.63;;;;;;;1.29;96.92;102543.56;5049693;28;20189;-73
2022/03/04 00:43:39;;;;;;;52.60;25.87;;;;;;;1.29;97.42;102538.50;5049376;28;20206;-73
2022/03/04 00:46:05;;;;;;;44.53;25.03;;;;;;;1.32;96.45;102543.81;5031978;28;20523;-72
2022/03/04 00:48:30;;;;;;;46.97;24.33;;;;;;;1.32;96.15;102545.47;5049692;28;20217;-73
2022/03/04 00:50:56;;;;;;;47.10;22.47;;;;;;;1.25;96.64;102540.66;5049448;28;20198;-71
2022/03/04 00:53:21;;;;;;;46.93;23.20;;;;;;;1.29;96.45;102530.94;5036598;28;20222;-72
2022/03/04 00:55:46;;;;;;;44.17;23.07;;;;;;;1.31;96.00;102534.50;5036666;28;20186;-72
2022/03/04 00:58:12;;;;;;;44.20;22.33;;;;;;;1.28;96.24;102530.84;5028640;28;20201;-73
2022/03/04 01:00:37;;;;;;;45.17;24.00;;;;;;;1.28;95.55;102533.38;5029234;28;20207;-73
2022/03/04 01:03:03;;;;;;;49.90;24.13;;;;;;;1.30;95.64;102530.22;5029179;28;20202;-71
2022/03/04 01:05:29;;;;;;;50.13;24.23;;;;;;;1.31;95.65;102526.03;5011674;28;20183;-71
2022/03/04 01:07:55;;;;;;;48.33;23.43;;;;;;;1.33;95.76;102532.97;5029237;28;20768;-73
2022/03/04 01:10:20;;;;;;;66.73;23.30;;;;;;;1.24;95.67;102523.78;5038870;28;20221;-72
2022/03/04 01:12:46;;;;;;;53.57;24.23;;;;;;;1.20;95.90;102525.16;5031592;28;20237;-72
2022/03/04 01:15:11;;;;;;;48.47;22.70;;;;;;;1.28;96.29;102533.38;5041153;28;20196;-73
2022/03/04 01:17:37;;;;;;;51.30;23.43;;;;;;;1.27;95.79;102526.53;5049580;28;20217;-73
2022/03/04 01:20:03;;;;;;;73.30;26.03;;;;;;;1.18;95.77;102523.25;5031590;28;20900;-73
2022/03/04 01:22:29;;;;;;;62.67;25.10;;;;;;;1.20;96.85;102520.13;5031407;28;20569;-72
2022/03/04 01:24:54;;;;;;;52.67;25.37;;;;;;;1.23;96.71;102522.00;5049057;28;20203;-72
2022/03/04 01:27:20;;;;;;;58.73;25.80;;;;;;;1.24;96.87;102522.13;5049511;28;20194;-73
2022/03/04 01:29:45;;;;;;;55.47;25.10;;;;;;;1.26;96.43;102514.69;5031453;28;20234;-73
2022/03/04 01:32:11;;;;;;;50.70;23.97;;;;;;;1.28;96.37;102518.22;5031144;28;20605;-73
2022/03/04 01:34:37;;;;;;;49.13;24.70;;;;;;;1.31;96.08;102523.50;5044159;28;20240;-72
2022/03/04 01:37:03;;;;;;;48.10;23.97;;;;;;;1.20;97.01;102525.16;5027555;28;20205;-73
2022/03/04 01:39:28;;;;;;;54.70;24.07;;;;;;;1.21;96.79;102523.50;5029344;28;20646;-73
2022/03/04 01:41:54;;;;;;;54.67;24.60;;;;;;;1.24;96.07;102522.13;5013944;28;20205;-73
2022/03/04 01:44:19;;;;;;;51.67;25.27;;;;;;;1.26;97.09;102514.69;5029941;28;20197;-72
2022/03/04 01:46:45;;;;;;;51.80;25.17;;;;;;;1.31;96.66;102520.97;5029232;28;20214;-73
2022/03/04 01:49:10;;;;;;;50.03;25.13;;;;;;;1.33;96.77;102522.00;5028793;28;20190;-73
2022/03/04 01:51:35;;;;;;;50.90;25.10;;;;;;;1.27;96.32;102514.81;5042699;28;20608;-72
2022/03/04 01:54:01;;;;;;;45.33;24.13;;;;;;;1.22;96.40;102518.59;5037686;28;20749;-75
2022/03/04 01:56:26;;;;;;;48.87;23.70;;;;;;;1.24;96.46;102519.59;5011417;28;20198;-73
2022/03/04 01:58:52;;;;;;;49.63;24.57;;;;;;;1.24;96.91;102522.13;5029354;28;20684;-73
2022/03/04 02:01:18;;;;;;;52.47;23.63;;;;;;;1.20;96.52;102517.59;5015151;28;20711;-71
2022/03/04 02:03:43;;;;;;;45.47;21.70;;;;;;;1.28;96.70;102514.06;5048180;28;20217;-73
2022/03/04 02:06:09;;;;;;;41.07;20.93;;;;;;;1.30;96.44;102514.19;5048664;28;20271;-72
2022/03/04 02:08:34;;;;;;;39.47;21.07;;;;;;;1.33;96.07;102510.25;5013673;28;20200;-73
2022/03/04 02:10:59;;;;;;;43.30;21.93;;;;;;;1.21;95.28;102511.78;5015349;28;20194;-73
2022/03/04 02:13:25;;;;;;;37.13;18.57;;;;;;;1.17;95.35;102519.84;5034832;28;20233;-71
2022/03/04 02:15:50;;;;;;;41.03;19.90;;;;;;;1.19;95.63;102520.84;5051453;28;20197;-74
2022/03/04 02:18:17;;;;;;;42.07;19.77;;;;;;;1.18;95.43;102511.53;5018415;28;20193;-73
2022/03/04 02:20:48;;;;;;;39.33;19.27;;;;;;;1.22;95.14;102522.75;5041800;28;20189;-71
2022/03/04 02:23:13;;;;;;;37.47;19.37;;;;;;;1.22;95.73;102516.06;5050879;28;20213;-71
2022/03/04 02:25:45;;;;;;;40.07;20.60;;;;;;;1.26;95.43;102514.69;5037126;28;20195;-72
2022/03/04 02:28:10;;;;;;;45.43;21.00;;;;;;;1.24;94.74;102514.53;5052451;28;20663;-73
2022/03/04 02:30:36;;;;;;;38.80;20.53;;;;;;;1.28;95.29;102510.66;5035603;28;20182;-73
2022/03/04 02:33:04;;;;;;;48.50;21.83;;;;;;;1.25;94.64;102510.41;5035579;28;20225;-70
2022/03/04 02:35:30;;;;;;;42.33;21.03;;;;;;;1.26;95.64;102510.53;5040267;28;20186;-71
2022/03/04 02:37:55;;;;;;;43.23;21.90;;;;;;;1.27;94.79;102512.28;5049058;28;20248;-71
2022/03/04 02:40:22;;;;;;;53.00;22.13;;;;;;;1.31;95.50;102509.28;5035181;28;20190;-70
2022/03/04 02:42:47;;;;;;;49.37;22.93;;;;;;;1.28;95.42;102518.22;5052185;28;20212;-70
2022/03/04 02:45:12;;;;;;;51.73;23.33;;;;;;;1.32;94.99;102517.72;5052287;28;20328;-71
2022/03/04 02:47:37;;;;;;;46.47;23.37;;;;;;;1.39;95.75;102522.50;5035456;28;20191;-72
2022/03/04 02:50:03;;;;;;;44.20;21.93;;;;;;;1.34;95.59;102519.63;5014567;28;20198;-71
2022/03/04 02:52:28;;;;;;;50.73;24.23;;;;;;;1.29;95.37;102520.84;5031904;28;20256;-72
2022/03/04 02:54:54;;;;;;;49.60;22.43;;;;;;;1.27;95.85;102526.53;5033845;28;20281;-71
2022/03/04 02:57:19;;;;;;;47.60;20.37;;;;;;;1.33;95.64;102517.84;5014018;28;20201;-70
2022/03/04 02:59:44;;;;;;;46.00;21.00;;;;;;;1.34;95.49;102517.09;5046614;28;20297;-70
2022/03/04 03:02:10;;;;;;;44.93;22.00;;;;;;;1.29;95.99;102518.31;5033547;28;20217;-72
2022/03/04 03:04:35;;;;;;;42.73;21.87;;;;;;;1.31;96.29;102519.34;5032013;28;20190;-71
2022/03/04 03:07:00;;;;;;;41.50;20.50;;;;;;;1.31;95.46;102526.03;5035406;28;20193;-71
2022/03/04 03:09:26;;;;;;;42.00;20.33;;;;;;;1.29;95.70;102530.09;5037850;28;20186;-70
2022/03/04 03:11:51;;;;;;;49.00;20.50;;;;;;;1.31;95.38;102526.94;5031640;28;20221;-71
2022/03/04 03:14:16;;;;;;;40.53;20.37;;;;;;;1.26;96.01;102534.84;5032005;28;20545;-72
2022/03/04 03:16:42;;;;;;;46.63;20.50;;;;;;;1.25;95.93;102528.94;5032076;28;20703;-70
2022/03/04 03:19:08;;;;;;;46.47;20.33;;;;;;;1.28;95.17;102528.31;5013966;28;20634;-70
2022/03/04 03:21:34;;;;;;;44.20;19.83;;;;;;;1.26;95.70;102528.19;5044872;28;20672;-70
2022/03/04 03:24:00;;;;;;;44.13;20.97;;;;;;;1.25;95.91;102523.00;5035186;28;20194;-71
2022/03/04 03:26:25;;;;;;;46.23;21.27;;;;;;;1.22;96.41;102528.69;5051277;28;20186;-75
2022/03/04 03:28:51;;;;;;;42.23;20.90;;;;;;;1.24;95.96;102531.34;5051499;28;20240;-71
2022/03/04 03:31:16;;;;;;;43.00;19.60;;;;;;;1.24;96.49;102521.25;5051393;28;20198;-71
2022/03/04 03:33:43;;;;;;;46.17;19.80;;;;;;;1.27;96.32;102524.00;5047730;28;20210;-71
2022/03/04 03:36:08;;;;;;;43.30;19.87;;;;;;;1.25;95.39;102526.44;5031472;28;20733;-71
2022/03/04 03:38:33;;;;;;;40.27;19.73;;;;;;;1.22;96.25;102531.22;5002234;28;20189;-71
2022/03/04 03:40:59;;;;;;;39.93;18.17;;;;;;;1.17;95.55;102535.00;5051304;28;20204;-70
2022/03/04 03:43:24;;;;;;;42.47;18.53;;;;;;;1.13;96.47;102532.06;5050201;28;20684;-70
2022/03/04 03:45:50;;;;;;;37.87;19.60;;;;;;;1.11;96.30;102531.97;5050937;28;20185;-71
2022/03/04 03:48:15;;;;;;;42.90;19.57;;;;;;;1.09;96.61;102533.47;5040716;28;20241;-70
2022/03/04 03:50:41;;;;;;;39.83;19.43;;;;;;;1.06;96.63;102519.72;5041915;28;20193;-72
2022/03/04 03:53:08;;;;;;;45.83;18.67;;;;;;;1.05;96.66;102523.88;5042075;28;20227;-71
2022/03/04 03:55:34;;;;;;;37.73;17.77;;;;;;;0.99;96.91;102522.47;5031056;28;20202;-72
2022/03/04 03:57:59;;;;;;;34.87;17.77;;;;;;;1.07;96.95;102524.91;5030676;28;20198;-71
2022/03/04 04:00:25;;;;;;;42.27;18.13;;;;;;;1.02;96.37;102525.25;5013001;28;20297;-70
2022/03/04 04:02:50;;;;;;;43.33;17.87;;;;;;;0.98;96.23;102535.84;5030679;28;20210;-71
2022/03/04 04:05:15;;;;;;;44.57;18.27;;;;;;;1.01;96.15;102529.41;5030821;28;20183;-70
2022/03/04 04:07:41;;;;;;;35.23;17.83;;;;;;;1.01;96.66;102526.00;5030776;28;20256;-71
2022/03/04 04:10:07;;;;;;;38.60;17.43;;;;;;;0.98;96.68;102530.78;5031586;28;20195;-71
2022/03/04 04:12:32;;;;;;;37.80;17.37;;;;;;;0.92;96.63;102528.63;5044217;28;20214;-70
2022/03/04 04:14:58;;;;;;;43.77;17.40;;;;;;;0.87;96.03;102547.53;5039236;28;20286;-71
2022/03/04 04:17:23;;;;;;;41.33;17.80;;;;;;;0.85;96.66;102544.00;5033669;28;20301;-70
2022/03/04 04:19:48;;;;;;;36.70;17.67;;;;;;;0.90;95.84;102547.78;5030473;28;20198;-70
2022/03/04 04:22:14;;;;;;;38.87;16.77;;;;;;;0.87;96.48;102552.56;5030093;28;20264;-70
2022/03/04 04:24:39;;;;;;;42.53;16.67;;;;;;;0.85;96.42;102548.16;5043122;28;20189;-72
2022/03/04 04:27:04;;;;;;;35.67;17.13;;;;;;;0.86;96.70;102548.28;5034823;28;20304;-71
2022/03/04 04:29:30;;;;;;;34.67;17.30;;;;;;;0.84;96.68;102556.47;5012785;28;20208;-70
2022/03/04 04:31:55;;;;;;;47.83;18.13;;;;;;;0.84;96.36;102559.88;5029655;28;20221;-72
2022/03/04 04:34:20;;;;;;;38.73;17.03;;;;;;;0.77;96.06;102550.03;5012181;28;20195;-70
2022/03/04 04:36:46;;;;;;;37.03;17.57;;;;;;;0.86;96.56;102560.03;5030272;28;20273;-71
2022/03/04 04:39:11;;;;;;;44.57;17.40;;;;;;;0.85;96.96;102549.03;5012417;28;20205;-70
2022/03/04 04:41:36;;;;;;;44.20;17.17;;;;;;;0.77;97.13;102555.06;5029924;28;20194;-72
2022/03/04 04:44:02;;;;;;;41.27;16.23;;;;;;;0.73;96.90;102555.56;5015016;28;20197;-70
2022/03/04 04:46:27;;;;;;;48.60;17.17;;;;;;;0.71;96.71;102554.56;5041710;28;20186;-70
2022/03/04 04:48:52;;;;;;;46.23;15.60;;;;;;;0.72;95.99;102555.44;5029854;28;20190;-72
2022/03/04 04:51:18;;;;;;;31.53;14.80;;;;;;;0.64;95.96;102552.25;5044678;28;20194;-70
2022/03/04 04:53:44;;;;;;;35.47;15.03;;;;;;;0.70;95.80;102547.75;5030636;28;20304;-70
2022/03/04 04:56:09;;;;;;;29.27;15.03;;;;;;;0.70;96.01;102555.31;5028609;28;20266;-72
2022/03/04 04:58:35;;;;;;;32.57;14.80;;;;;;;0.66;96.55;102548.25;5033532;28;20204;-71
2022/03/04 05:01:00;;;;;;;29.47;15.00;;;;;;;0.69;96.15;102552.66;5031419;28;20209;-72
2022/03/04 05:03:26;;;;;;;31.57;15.50;;;;;;;0.68;95.75;102543.34;5029630;28;20206;-70
2022/03/04 05:05:56;;;;;;;49.03;17.30;;;;;;;0.59;95.61;102548.44;5029753;28;20190;-70
2022/03/04 05:08:21;;;;;;;32.63;15.93;;;;;;;0.70;96.70;102546.84;5012225;28;20317;-70
2022/03/04 05:10:47;;;;;;;32.47;15.73;;;;;;;0.65;96.07;102538.91;5013142;28;20519;-70
2022/03/04 05:13:13;;;;;;;40.77;16.27;;;;;;;0.68;96.50;102539.16;5006198;28;20225;-71
2022/03/04 05:15:39;;;;;;;29.77;14.67;;;;;;;0.66;95.84;102543.19;5023895;28;20672;-72
2022/03/04 05:18:05;;;;;;;33.33;15.23;;;;;;;0.65;95.75;102538.91;5040377;28;20195;-71
2022/03/04 05:20:30;;;;;;;29.67;14.00;;;;;;;0.64;95.54;102547.19;5029520;28;20193;-71
2022/03/04 05:22:55;;;;;;;35.77;14.77;;;;;;;0.57;95.68;102539.88;5044827;28;20205;-71
2022/03/04 05:25:21;;;;;;;31.73;14.27;;;;;;;0.59;95.41;102543.41;5049456;28;20189;-70
2022/03/04 05:27:46;;;;;;;38.97;15.30;;;;;;;0.51;96.36;102563.66;5049242;28;20189;-70
2022/03/04 05:30:12;;;;;;;39.77;15.63;;;;;;;0.44;96.20;102569.81;5049576;28;20192;-71
2022/03/04 05:32:37;;;;;;;36.30;16.20;;;;;;;0.52;96.56;102569.72;5049275;28;20300;-72
2022/03/04 05:35:04;;;;;;;31.20;14.47;;;;;;;0.46;96.35;102568.28;5035293;28;20190;-70
2022/03/04 05:37:30;;;;;;;30.17;13.53;;;;;;;0.39;96.42;102573.56;5046258;28;20549;-73
2022/03/04 05:39:55;;;;;;;25.23;13.07;;;;;;;0.46;96.61;102567.44;5049923;28;20601;-71
2022/03/04 05:42:21;;;;;;;28.03;13.57;;;;;;;0.41;96.68;102577.09;5032238;28;20213;-71
2022/03/04 05:44:46;;;;;;;30.80;13.23;;;;;;;0.39;96.11;102576.09;5047178;28;20186;-73
2022/03/04 05:47:11;;;;;;;27.07;14.07;;;;;;;0.41;96.48;102569.53;5015947;28;20816;-70
2022/03/04 05:49:38;;;;;;;26.77;12.47;;;;;;;0.43;95.78;102575.59;5015620;28;20174;-71
2022/03/04 05:52:04;;;;;;;30.37;13.53;;;;;;;0.41;95.46;102574.56;5045980;28;20306;-70
2022/03/04 05:54:29;;;;;;;29.57;13.67;;;;;;;0.36;96.36;102568.25;5036833;28;20178;-70
2022/03/04 05:56:55;;;;;;;36.20;14.83;;;;;;;0.35;96.37;102574.03;5036579;28;20825;-71
2022/03/04 05:59:21;;;;;;;29.13;15.27;;;;;;;0.37;96.21;102574.19;5045753;28;20194;-72
2022/03/04 06:01:46;;;;;;;30.33;14.60;;;;;;;0.40;96.39;102582.03;5039922;28;20186;-71
2022/03/04 06:04:12;;;;;;;30.63;14.50;;;;;;;0.38;95.92;102586.03;5033494;28;20206;-71
2022/03/04 06:06:37;;;;;;;29.07;14.47;;;;;;;0.34;95.96;102583.22;5032171;28;20197;-72
2022/03/04 06:09:03;;;;;;;28.27;13.77;;;;;;;0.34;96.34;102578.19;5052966;28;20189;-72
2022/03/04 06:11:28;;;;;;;32.27;14.17;;;;;;;0.39;95.32;102593.72;5035187;28;20190;-70
2022/03/04 06:13:54;;;;;;;25.77;13.77;;;;;;;0.36;95.48;102585.00;5052767;28;20218;-70
2022/03/04 06:16:20;;;;;;;29.33;13.33;;;;;;;0.39;95.24;102581.13;5052953;28;20190;-71
2022/03/04 06:18:45;;;;;;;25.47;13.57;;;;;;;0.38;95.86;102587.78;5024288;28;20243;-72
2022/03/04 06:21:11;;;;;;;28.73;13.37;;;;;;;0.43;94.86;102584.03;5031680;28;20289;-71
2022/03/04 06:23:36;;;;;;;24.47;12.90;;;;;;;0.36;95.01;102585.88;5032825;28;20217;-73
2022/03/04 06:26:02;;;;;;;23.50;11.80;;;;;;;0.43;94.68;102589.81;5031684;28;20190;-71
2022/03/04 06:28:27;;;;;;;24.77;12.30;;;;;;;0.47;95.20;102588.59;5033327;28;20541;-71
2022/03/04 06:30:53;;;;;;;23.60;11.90;;;;;;;0.47;94.84;102591.09;5031358;28;20601;-70
2022/03/04 06:33:32;;;;;;;20.20;11.50;;;;;;;0.44;95.09;102584.91;5032545;28;20559;-70
2022/03/04 06:36:06;;;;;;;22.40;11.63;;;;;;;0.32;95.01;102594.81;5032774;28;20642;-71
2022/03/04 06:38:34;;;;;;;23.93;11.97;;;;;;;0.30;95.17;102602.97;5032470;28;20451;-73
2022/03/04 06:41:00;;;;;;;24.50;12.30;;;;;;;0.39;95.35;102603.78;5032545;28;20429;-72
2022/03/04 06:43:25;;;;;;;21.60;11.63;;;;;;;0.41;94.56;102599.75;5032517;28;20236;-72
2022/03/04 06:45:51;;;;;;;23.33;11.67;;;;;;;0.37;94.25;102596.84;5032532;28;20823;-73
2022/03/04 06:48:18;;;;;;;23.60;11.27;;;;;;;0.43;94.41;102601.66;5032849;28;20669;-73
2022/03/04 06:50:43;;;;;;;24.90;12.17;;;;;;;0.37;93.73;102610.34;5032786;28;20531;-72
2022/03/04 06:53:09;;;;;;;21.53;10.87;;;;;;;0.45;94.42;102605.97;5032327;28;20614;-74
2022/03/04 06:55:35;;;;;;;23.40;11.33;;;;;;;0.51;94.03;102611.53;5031157;28;20966;-72
2022/03/04 06:58:00;;;;;;;18.93;10.27;;;;;;;0.57;94.11;102612.06;5031171;28;20800;-73
2022/03/04 07:00:27;;;;;;;25.90;11.70;;;;;;;0.47;94.01;102612.00;5041387;28;20198;-72
2022/03/04 07:02:53;;;;;;;22.67;11.13;;;;;;;0.54;94.21;102621.91;5049303;28;20244;-73
2022/03/04 07:05:21;;;;;;;21.97;11.33;;;;;;;0.65;94.60;102621.19;5014576;28;20486;-72
2022/03/04 07:07:53;;;;;;;21.63;11.30;;;;;;;0.68;94.16;102624.84;5052091;28;20466;-73
2022/03/04 07:10:19;;;;;;;22.73;12.30;;;;;;;0.64;94.08;102627.84;5034192;28;20549;-73
2022/03/04 07:12:45;;;;;;;20.80;12.20;;;;;;;0.67;94.53;102623.06;5051648;28;20484;-72
2022/03/04 07:15:11;;;;;;;20.53;10.40;;;;;;;0.63;94.57;102626.06;5051817;28;20232;-72
2022/03/04 07:17:36;;;;;;;25.83;11.60;;;;;;;0.75;93.71;102616.19;5046479;28;20457;-73
2022/03/04 07:20:03;;;;;;;22.60;12.17;;;;;;;0.77;94.48;102617.22;5031889;28;20664;-72
2022/03/04 07:22:29;;;;;;;21.87;10.90;;;;;;;0.66;93.80;102617.91;5013901;28;20217;-73
2022/03/04 07:24:54;;;;;;;21.10;11.33;;;;;;;0.70;93.48;102614.91;5031806;28;20438;-72
2022/03/04 07:27:20;;;;;;;19.63;10.43;;;;;;;0.70;94.20;102622.47;5031609;28;20717;-72
2022/03/04 07:29:45;;;;;;;20.33;11.40;;;;;;;0.72;94.00;102621.84;5031711;28;20277;-73
2022/03/04 07:32:11;;;;;;;23.60;11.40;;;;;;;0.74;94.02;102622.88;5031479;28;20209;-73
2022/03/04 07:34:37;;;;;;;21.93;11.77;;;;;;;0.86;93.71;102625.56;5031425;28;20452;-72
2022/03/04 07:37:02;;;;;;;21.37;10.57;;;;;;;0.93;93.63;102622.81;5031607;28;20324;-74
2022/03/04 07:39:27;;;;;;;18.03;10.70;;;;;;;0.87;93.52;102627.31;5031562;28;20190;-73
2022/03/04 07:41:53;;;;;;;18.53;11.00;;;;;;;0.71;93.33;102625.13;5031295;28;20352;-72
2022/03/04 07:44:26;;;;;;;21.83;12.27;;;;;;;0.62;94.01;102630.97;5013445;28;20276;-73
2022/03/04 07:46:52;;;;;;;20.47;11.27;;;;;;;0.58;93.84;102632.34;4997255;28;20540;-73
2022/03/04 07:49:17;;;;;;;19.50;10.63;;;;;;;0.70;94.09;102637.56;5031253;28;20190;-73
2022/03/04 07:51:43;;;;;;;22.53;11.67;;;;;;;0.74;94.38;102645.56;5031188;28;20198;-74
2022/03/04 07:54:09;;;;;;;21.83;11.97;;;;;;;0.88;93.70;102641.69;5031103;28;20269;-73
2022/03/04 07:56:34;;;;;;;21.53;11.93;;;;;;;0.98;93.30;102646.75;5031345;28;21183;-74
2022/03/04 07:59:00;;;;;;;22.07;11.47;;;;;;;0.91;94.29;102647.00;5026957;28;20209;-72
2022/03/04 08:01:25;;;;;;;18.00;10.23;;;;;;;0.87;93.74;102642.44;5051025;28;20201;-73
2022/03/04 08:03:51;;;;;;;16.80;9.83;;;;;;;0.77;94.01;102655.88;5050898;28;20194;-73
2022/03/04 08:06:16;;;;;;;18.13;10.47;;;;;;;0.83;92.98;102660.56;5050260;28;20629;-70
2022/03/04 08:08:42;;;;;;;18.73;10.30;;;;;;;0.88;93.59;102659.34;5050829;28;20609;-73
2022/03/04 08:11:07;;;;;;;17.50;10.13;;;;;;;1.01;92.83;102665.56;5050809;28;20192;-74
2022/03/04 08:13:34;;;;;;;16.07;9.83;;;;;;;0.87;92.55;102665.13;5050346;28;20248;-72
2022/03/04 08:16:00;;;;;;;15.90;9.50;;;;;;;1.06;92.24;102664.31;5050635;28;20201;-74
2022/03/04 08:18:26;;;;;;;16.87;10.00;;;;;;;1.21;92.22;102664.75;5038515;28;20218;-73
2022/03/04 08:20:51;;;;;;;15.33;9.67;;;;;;;1.37;91.96;102667.84;5030595;28;20249;-74
2022/03/04 08:23:18;;;;;;;17.53;9.87;;;;;;;1.26;91.66;102666.94;5030321;28;20960;-72
2022/03/04 08:25:44;;;;;;;17.40;10.10;;;;;;;1.25;91.68;102672.72;5030681;28;20194;-72
2022/03/04 08:28:09;;;;;;;18.73;10.97;;;;;;;1.29;91.92;102667.16;5030385;28;20194;-72
2022/03/04 08:30:35;;;;;;;20.60;11.07;;;;;;;1.23;92.15;102669.16;5013340;28;20194;-72
2022/03/04 08:33:01;;;;;;;19.47;10.30;;;;;;;1.59;92.38;102662.19;5012898;28;20222;-73
2022/03/04 08:35:26;;;;;;;20.37;11.23;;;;;;;1.46;91.74;102676.19;5030316;28;20194;-74
2022/03/04 08:37:54;;;;;;;16.53;9.37;;;;;;;1.45;91.55;102685.38;5030325;28;20194;-74
2022/03/04 08:40:20;;;;;;;19.03;10.20;;;;;;;1.47;91.26;102680.47;5029887;28;20190;-73
2022/03/04 08:42:45;;;;;;;22.67;9.60;;;;;;;1.52;91.04;102689.31;5012317;28;20256;-74
2022/03/04 08:45:13;;;;;;;18.60;10.50;;;;;;;1.54;90.83;102683.66;5030152;28;20191;-73
2022/03/04 08:47:39;;;;;;;17.97;11.43;;;;;;;1.68;90.72;102690.72;5030121;28;20199;-74
2022/03/04 08:50:05;;;;;;;17.47;9.80;;;;;;;1.66;90.45;102687.19;5012263;28;20626;-74
2022/03/04 08:52:31;;;;;;;18.07;9.87;;;;;;;1.74;90.82;102686.19;5029595;28;20588;-74
2022/03/04 08:54:57;;;;;;;17.17;10.30;;;;;;;1.75;89.34;102684.56;5030221;28;20185;-73
2022/03/04 08:57:23;;;;;;;16.27;9.97;;;;;;;1.76;90.46;102686.31;5049482;28;20181;-74
2022/03/04 08:59:48;;;;;;;17.30;9.30;;;;;;;1.76;89.95;102696.41;5029840;28;20194;-73
2022/03/04 09:02:13;;;;;;;18.03;10.60;;;;;;;1.62;91.11;102700.31;5045950;28;20293;-74
2022/03/04 09:04:39;;;;;;;19.43;10.63;;;;;;;1.75;90.78;102694.66;5049728;28;20178;-74
2022/03/04 09:07:06;;;;;;;18.67;10.47;;;;;;;1.62;90.25;102702.84;5049769;28;20185;-73
2022/03/04 09:09:32;;;;;;;20.10;10.63;;;;;;;1.73;90.64;102707.16;5049773;28;20186;-73
2022/03/04 09:11:58;;;;;;;17.60;9.93;;;;;;;1.62;91.30;102709.53;5050137;28;20205;-74
2022/03/04 09:14:23;;;;;;;16.30;9.97;;;;;;;1.61;90.69;102716.19;5031996;28;20201;-71
2022/03/04 09:16:50;;;;;;;16.77;10.80;;;;;;;1.85;90.72;102708.19;5015436;28;20193;-73
2022/03/04 09:19:15;;;;;;;18.53;10.23;;;;;;;1.97;90.24;102705.81;5030980;28;20190;-76
2022/03/04 09:21:41;;;;;;;21.33;11.03;;;;;;;1.95;90.01;102710.72;5049556;28;20665;-72
2022/03/04 09:24:07;;;;;;;22.13;12.67;;;;;;;1.70;90.90;102714.44;5049353;28;20900;-72
2022/03/04 09:26:32;;;;;;;23.83;12.53;;;;;;;1.62;91.30;102723.03;5049382;28;20181;-75
2022/03/04 09:28:57;;;;;;;23.30;12.97;;;;;;;1.71;91.44;102716.25;5049544;28;20713;-71
2022/03/04 09:31:23;;;;;;;24.70;13.90;;;;;;;1.89;91.71;102725.34;5031559;28;20254;-72
2022/03/04 09:33:48;;;;;;;21.97;12.77;;;;;;;1.85;91.20;102723.34;5049151;28;20304;-73
2022/03/04 09:36:15;;;;;;;23.07;13.67;;;;;;;1.81;91.98;102725.47;5049495;28;20185;-72
2022/03/04 09:38:42;;;;;;;21.63;12.20;;;;;;;1.88;91.02;102722.72;5049382;28;20652;-72
2022/03/04 09:41:08;;;;;;;22.43;12.47;;;;;;;2.07;91.21;102721.81;5049146;28;20763;-73
2022/03/04 09:43:34;;;;;;;22.10;12.97;;;;;;;2.09;90.63;102720.31;5049078;28;20205;-73
2022/03/04 09:45:59;;;;;;;24.63;13.47;;;;;;;2.34;90.46;102719.03;5049296;28;20691;-72
2022/03/04 09:48:25;;;;;;;23.47;13.30;;;;;;;2.44;89.32;102718.16;5049196;28;20544;-73
2022/03/04 09:50:50;;;;;;;20.80;11.40;;;;;;;2.34;90.00;102718.19;5049232;28;20197;-73
2022/03/04 09:53:16;;;;;;;19.50;10.97;;;;;;;2.17;89.61;102721.84;5031145;28;20240;-72
2022/03/04 09:55:43;;;;;;;17.93;10.83;;;;;;;2.46;89.13;102722.59;5049072;28;20184;-72
2022/03/04 09:58:14;;;;;;;16.70;10.67;;;;;;;2.57;89.80;102720.94;5028122;28;20682;-73
2022/03/04 10:00:40;;;;;;;20.03;10.90;;;;;;;2.72;88.21;102728.09;5027571;28;20294;-74
2022/03/04 10:03:10;;;;;;;19.03;10.33;;;;;;;3.02;88.25;102727.13;5036819;28;20744;-72
2022/03/04 10:05:50;;;;;;;16.80;10.27;;;;;;;2.87;86.74;102718.31;5032641;28;20200;-72
2022/03/04 10:08:19;;;;;;;17.80;10.30;;;;;;;2.65;88.01;102720.78;5027535;28;20686;-73
2022/03/04 10:11:03;;;;;;;16.87;9.87;;;;;;;2.56;88.23;102729.25;5028133;28;20214;-73
2022/03/04 10:13:49;;;;;;;18.53;10.87;;;;;;;2.96;87.28;102717.41;5028685;28;20211;-72
2022/03/04 10:16:36;;;;;;;17.10;9.90;;;;;;;3.78;83.48;102719.69;5033102;28;20279;-73
2022/03/04 10:19:18;;;;;;;16.43;9.80;;;;;;;3.48;84.63;102728.31;5022067;28;20297;-73
2022/03/04 10:21:47;;;;;;;17.20;9.60;;;;;;;3.38;84.16;102723.31;5028917;28;20183;-72
2022/03/04 10:24:14;;;;;;;14.20;9.23;;;;;;;3.65;84.06;102728.00;5028818;28;20183;-71
2022/03/04 10:26:39;;;;;;;16.73;9.67;;;;;;;3.76;83.81;102714.47;5028988;28;20731;-73
2022/03/04 10:29:23;;;;;;;13.03;8.83;;;;;;;4.08;83.55;102717.81;5027469;28;20197;-73
2022/03/04 10:32:07;;;;;;;17.90;9.27;;;;;;;4.52;81.89;102709.28;5031065;28;20189;-73
2022/03/04 10:34:56;;;;;;;12.97;8.00;;;;;;;4.09;80.88;102713.63;5041501;28;20190;-72
2022/03/04 10:37:41;;;;;;;14.13;8.93;;;;;;;4.22;81.07;102711.22;5032501;28;20201;-73
2022/03/04 10:40:17;;;;;;;15.73;8.37;;;;;;;4.05;81.20;102715.03;5014626;28;20852;-73
2022/03/04 10:42:49;;;;;;;17.23;9.43;;;;;;;3.92;81.37;102711.47;5030708;28;20210;-73
2022/03/04 10:45:25;;;;;;;14.73;9.07;;;;;;;3.97;80.64;102708.53;5032225;28;20197;-75
2022/03/04 10:48:02;;;;;;;15.10;9.30;;;;;;;3.93;80.70;102703.09;5014525;28;20205;-74
2022/03/04 10:50:33;;;;;;;15.40;9.03;;;;;;;4.19;80.75;102703.41;5014231;28;20201;-77
2022/03/04 10:53:20;;;;;;;13.23;8.23;;;;;;;4.24;79.76;102697.03;5014151;28;20693;-74
2022/03/04 10:55:46;;;;;;;13.03;7.83;;;;;;;4.63;78.57;102692.31;5018415;28;20190;-76
2022/03/04 10:58:24;;;;;;;13.80;8.67;;;;;;;4.98;77.62;102685.59;5014428;28;20190;-74
2022/03/04 11:00:54;;;;;;;15.47;9.00;;;;;;;4.75;77.31;102694.06;5031823;28;20198;-74
2022/03/04 11:03:22;;;;;;;12.57;8.03;;;;;;;6.45;71.98;102688.22;5031817;28;20213;-74
2022/03/04 11:05:50;;;;;;;12.90;8.10;;;;;;;7.38;68.44;102684.91;5032101;28;20189;-75
2022/03/04 11:08:16;;;;;;;12.27;8.40;;;;;;;6.80;68.62;102677.00;5040621;28;20656;-75
2022/03/04 11:10:42;;;;;;;13.03;7.47;;;;;;;6.35;69.04;102681.66;5050160;28;20189;-74
2022/03/04 11:13:09;;;;;;;11.13;7.23;;;;;;;7.01;68.83;102680.00;5051765;28;20217;-74
2022/03/04 11:15:35;;;;;;;12.47;8.20;;;;;;;8.26;64.74;102674.19;5040198;28;20236;-73
2022/03/04 11:18:04;;;;;;;11.77;8.03;;;;;;;7.88;65.08;102668.47;5031707;28;20289;-73